createdAt,value
2018-01-26T00:00:52.161Z,9.87
2018-01-26T00:03:20.535Z,10.83
2018-01-26T00:05:49.054Z,10.07
2018-01-26T00:08:18.217Z,10.30
2018-01-26T00:10:46.715Z,11.20
2018-01-26T00:13:15.835Z,11.03
2018-01-26T00:15:45.160Z,16.30
2018-01-26T00:18:13.515Z,16.43
2018-01-26T00:20:42.871Z,15.37
2018-01-26T00:23:12.203Z,11.57
2018-01-26T00:25:41.510Z,11.20
2018-01-26T00:28:10.635Z,18.83
2018-01-26T00:30:39.089Z,8.93
2018-01-26T00:33:08.235Z,7.50
2018-01-26T00:35:36.644Z,10.83
2018-01-26T00:38:05.071Z,9.77
2018-01-26T00:40:33.960Z,10.13
2018-01-26T00:43:02.402Z,10.83
2018-01-26T00:45:31.546Z,14.60
2018-01-26T00:47:59.929Z,22.30
2018-01-26T00:50:28.592Z,13.93
2018-01-26T00:52:57.108Z,11.40
2018-01-26T00:55:25.646Z,9.57
2018-01-26T00:57:54.035Z,13.10
2018-01-26T01:00:22.069Z,9.33
2018-01-26T01:02:51.271Z,10.63
2018-01-26T01:05:20.418Z,8.13
2018-01-26T01:07:49.158Z,15.40
2018-01-26T01:10:17.768Z,11.63
2018-01-26T01:12:46.310Z,8.73
2018-01-26T01:15:15.445Z,9.60
2018-01-26T01:17:43.822Z,11.27
2018-01-26T01:20:12.340Z,10.03
2018-01-26T01:22:40.779Z,10.30
2018-01-26T01:25:09.119Z,9.37
2018-01-26T01:27:38.423Z,12.23
2018-01-26T01:30:07.907Z,12.17
2018-01-26T01:32:36.363Z,10.03
2018-01-26T01:35:04.739Z,8.80
2018-01-26T01:37:33.110Z,9.77
2018-01-26T01:40:01.643Z,11.37
2018-01-26T01:42:30.815Z,12.20
2018-01-26T01:44:59.173Z,13.33
2018-01-26T01:47:27.606Z,13.70
2018-01-26T01:49:56.890Z,15.00
2018-01-26T01:52:26.085Z,14.90
2018-01-26T01:54:54.580Z,10.73
2018-01-26T01:57:23.777Z,11.70
2018-01-26T01:59:52.189Z,13.60
2018-01-26T02:02:20.642Z,8.73
2018-01-26T02:04:49.276Z,17.33
2018-01-26T02:07:17.602Z,9.07
2018-01-26T02:09:46.556Z,9.17
2018-01-26T02:12:15.718Z,9.97
2018-01-26T02:14:44.221Z,14.73
2018-01-26T02:17:12.568Z,13.40
2018-01-26T02:19:40.929Z,16.70
2018-01-26T02:22:09.452Z,13.73
2018-01-26T02:24:37.898Z,23.30
2018-01-26T02:27:06.395Z,10.70
2018-01-26T02:29:34.800Z,22.73
2018-01-26T02:32:03.370Z,12.83
2018-01-26T02:34:31.765Z,14.47
2018-01-26T02:37:00.210Z,10.97
2018-01-26T02:39:28.358Z,14.63
2018-01-26T02:41:56.870Z,12.90
2018-01-26T02:44:25.206Z,12.70
2018-01-26T02:46:54.340Z,15.20
2018-01-26T02:49:22.712Z,13.07
2018-01-26T02:51:51.238Z,15.20
2018-01-26T02:54:19.743Z,10.90
2018-01-26T02:56:49.178Z,16.17
2018-01-26T02:59:17.620Z,11.27
2018-01-26T03:01:46.730Z,11.10
2018-01-26T03:04:15.863Z,10.30
2018-01-26T03:06:44.221Z,15.73
2018-01-26T03:09:12.578Z,17.83
2018-01-26T03:11:42.542Z,14.13
2018-01-26T03:14:10.950Z,16.90
2018-01-26T03:16:39.476Z,20.33
2018-01-26T03:19:08.090Z,15.37
2018-01-26T03:21:36.707Z,17.10
2018-01-26T03:24:05.745Z,14.77
2018-01-26T03:26:34.112Z,12.47
2018-01-26T03:29:02.506Z,14.63
2018-01-26T03:31:30.922Z,13.70
2018-01-26T03:33:59.516Z,13.27
2018-01-26T03:36:27.890Z,12.10
2018-01-26T03:38:56.497Z,15.30
2018-01-26T03:41:25.751Z,17.40
2018-01-26T03:43:54.342Z,14.27
2018-01-26T03:46:22.842Z,14.53
2018-01-26T03:48:52.102Z,17.77
2018-01-26T03:51:20.683Z,12.10
2018-01-26T03:53:49.043Z,14.27
2018-01-26T03:56:17.558Z,11.70
2018-01-26T03:58:45.916Z,13.23
2018-01-26T04:01:14.303Z,11.20
2018-01-26T04:03:42.659Z,13.30
2018-01-26T04:06:11.028Z,11.50
2018-01-26T04:08:39.435Z,12.80
2018-01-26T04:11:08.015Z,12.87
2018-01-26T04:13:36.353Z,11.80
2018-01-26T04:16:04.755Z,12.13
2018-01-26T04:18:33.156Z,14.63
2018-01-26T04:21:01.655Z,14.00
2018-01-26T04:23:30.170Z,14.57
2018-01-26T04:25:59.601Z,12.23
2018-01-26T04:28:27.977Z,11.10
2018-01-26T04:30:56.462Z,14.83
2018-01-26T04:33:24.851Z,18.20
2018-01-26T04:35:53.220Z,15.03
2018-01-26T04:38:21.561Z,11.67
2018-01-26T04:40:50.048Z,12.00
2018-01-26T04:43:18.414Z,12.30
2018-01-26T04:48:21.113Z,16.93
2018-01-26T04:50:50.316Z,11.33
2018-01-26T04:53:18.698Z,16.67
2018-01-26T04:55:47.792Z,16.63
2018-01-26T04:58:16.493Z,18.77
2018-01-26T05:00:44.845Z,12.97
2018-01-26T05:03:14.126Z,11.93
2018-01-26T05:05:42.536Z,17.93
2018-01-26T05:08:10.882Z,14.10
2018-01-26T05:10:39.384Z,17.60
2018-01-26T05:13:08.514Z,10.63
2018-01-26T05:15:37.128Z,13.73
2018-01-26T05:18:05.481Z,15.47
2018-01-26T05:20:34.043Z,20.27
2018-01-26T05:23:02.486Z,12.23
2018-01-26T05:25:30.855Z,15.43
2018-01-26T05:28:00.274Z,26.33
2018-01-26T05:30:30.054Z,14.43
2018-01-26T05:32:59.316Z,15.20
2018-01-26T05:35:27.879Z,13.97
2018-01-26T05:37:56.430Z,13.43
2018-01-26T05:40:24.814Z,19.50
2018-01-26T05:42:53.160Z,14.70
2018-01-26T05:45:21.502Z,14.43
2018-01-26T05:47:50.016Z,13.17
2018-01-26T05:50:18.347Z,19.63
2018-01-26T05:52:47.526Z,19.63
2018-01-26T05:55:16.062Z,14.10
2018-01-26T05:57:44.409Z,20.40
2018-01-26T06:00:12.750Z,13.67
2018-01-26T06:02:41.097Z,17.80
2018-01-26T06:05:09.119Z,12.37
2018-01-26T06:07:38.242Z,13.63
2018-01-26T06:10:06.583Z,13.47
2018-01-26T06:12:35.522Z,15.20
2018-01-26T06:15:03.873Z,14.57
2018-01-26T06:17:32.270Z,11.80
2018-01-26T06:20:00.616Z,15.30
2018-01-26T06:22:29.841Z,18.10
2018-01-26T06:24:58.003Z,13.00
2018-01-26T06:27:26.172Z,14.53
2018-01-26T06:29:54.333Z,14.93
2018-01-26T06:32:23.380Z,15.60
2018-01-26T06:34:51.881Z,15.83
2018-01-26T06:37:20.223Z,15.80
2018-01-26T06:39:48.572Z,11.97
2018-01-26T06:42:17.318Z,13.80
2018-01-26T06:44:46.549Z,13.03
2018-01-26T06:47:16.554Z,14.80
2018-01-26T06:49:45.705Z,20.40
2018-01-26T06:52:14.325Z,16.87
2018-01-26T06:54:42.775Z,16.93
2018-01-26T06:57:11.116Z,14.63
2018-01-26T06:59:39.456Z,17.33
2018-01-26T07:02:07.934Z,15.10
2018-01-26T07:04:36.350Z,18.43
2018-01-26T07:07:04.708Z,17.60
2018-01-26T07:09:33.828Z,13.33
2018-01-26T07:12:02.259Z,11.00
2018-01-26T07:14:30.613Z,15.23
2018-01-26T07:16:58.782Z,18.13
2018-01-26T07:19:27.153Z,14.13
2018-01-26T07:21:55.497Z,13.80
2018-01-26T07:24:24.620Z,19.60
2018-01-26T07:26:53.058Z,12.23
2018-01-26T07:29:22.191Z,13.77
2018-01-26T07:31:50.538Z,15.50
2018-01-26T07:34:19.647Z,15.67
2018-01-26T07:36:48.783Z,23.70
2018-01-26T07:39:17.118Z,17.23
2018-01-26T07:41:45.523Z,16.03
2018-01-26T07:44:13.946Z,21.37
2018-01-26T07:46:43.298Z,16.27
2018-01-26T07:49:11.644Z,11.50
2018-01-26T07:51:40.773Z,14.53
2018-01-26T07:54:09.143Z,14.43
2018-01-26T07:56:37.631Z,16.90
2018-01-26T07:59:06.310Z,19.83
2018-01-26T08:01:34.683Z,15.93
2018-01-26T08:04:03.145Z,16.60
2018-01-26T08:06:31.424Z,15.30
2018-01-26T08:09:00.466Z,16.53
2018-01-26T08:11:28.833Z,14.00
2018-01-26T08:13:57.249Z,13.50
2018-01-26T08:16:25.633Z,15.93
2018-01-26T08:18:54.773Z,15.43
2018-01-26T08:21:23.131Z,17.47
2018-01-26T08:23:51.483Z,19.30
2018-01-26T08:26:20.596Z,16.60
2018-01-26T08:28:48.774Z,19.80
2018-01-26T08:31:17.123Z,15.23
2018-01-26T08:33:46.043Z,18.63
2018-01-26T08:36:14.398Z,17.13
2018-01-26T08:38:43.507Z,16.73
2018-01-26T08:41:12.660Z,16.73
2018-01-26T08:43:41.022Z,10.27
2018-01-26T08:46:09.394Z,20.27
2018-01-26T08:48:37.818Z,15.63
2018-01-26T08:51:06.959Z,15.10
2018-01-26T08:53:35.302Z,18.70
2018-01-26T08:56:04.267Z,14.03
2018-01-26T08:58:32.613Z,19.33
2018-01-26T09:01:00.979Z,19.20
2018-01-26T09:03:29.471Z,22.43
2018-01-26T09:05:58.180Z,17.27
2018-01-26T09:08:26.694Z,15.47
2018-01-26T09:10:55.830Z,17.17
2018-01-26T09:13:24.179Z,17.00
2018-01-26T09:15:52.534Z,17.70
2018-01-26T09:18:20.896Z,19.00
2018-01-26T09:20:49.248Z,16.40
2018-01-26T09:23:17.615Z,15.80
2018-01-26T09:25:45.993Z,15.00
2018-01-26T09:28:14.347Z,15.50
2018-01-26T09:30:42.447Z,13.10
2018-01-26T09:33:10.828Z,15.70
2018-01-26T09:35:39.181Z,16.10
2018-01-26T09:38:07.531Z,13.73
2018-01-26T09:40:36.688Z,19.13
2018-01-26T09:43:05.019Z,18.73
2018-01-26T09:45:33.478Z,17.40
2018-01-26T09:48:02.578Z,10.90
2018-01-26T09:50:32.407Z,14.77
2018-01-26T09:53:01.575Z,15.40
2018-01-26T09:55:29.972Z,15.10
2018-01-26T09:57:58.501Z,15.10
2018-01-26T10:00:26.845Z,15.60
2018-01-26T10:02:55.222Z,14.43
2018-01-26T10:05:23.646Z,19.73
2018-01-26T10:07:52.073Z,13.10
2018-01-26T10:10:21.414Z,21.80
2018-01-26T10:12:50.782Z,18.37
2018-01-26T10:15:19.145Z,16.67
2018-01-26T10:17:48.273Z,16.00
2018-01-26T10:20:16.633Z,17.60
2018-01-26T10:22:45.138Z,15.90
2018-01-26T10:25:13.482Z,16.40
2018-01-26T10:27:42.682Z,18.67
2018-01-26T10:30:11.785Z,16.83
2018-01-26T10:32:40.351Z,16.40
2018-01-26T10:35:09.454Z,15.20
2018-01-26T10:37:37.810Z,20.17
2018-01-26T10:40:06.230Z,13.10
2018-01-26T10:42:34.606Z,17.10
2018-01-26T10:45:02.998Z,15.00
2018-01-26T10:47:31.354Z,22.00
2018-01-26T10:49:59.703Z,15.00
2018-01-26T10:52:28.881Z,16.63
2018-01-26T10:54:57.230Z,13.00
2018-01-26T10:57:25.618Z,18.57
2018-01-26T10:59:54.082Z,15.77
2018-01-26T11:02:22.462Z,16.33
2018-01-26T11:04:50.804Z,18.20
2018-01-26T11:07:19.923Z,20.80
2018-01-26T11:09:48.277Z,18.67
2018-01-26T11:12:17.390Z,23.67
2018-01-26T11:14:45.747Z,24.50
2018-01-26T11:17:14.854Z,16.47
2018-01-26T11:19:43.216Z,16.23
2018-01-26T11:22:12.327Z,17.00
2018-01-26T11:24:41.465Z,18.53
2018-01-26T11:27:10.032Z,17.87
2018-01-26T11:29:38.623Z,15.27
2018-01-26T11:32:06.997Z,15.83
2018-01-26T11:34:35.642Z,15.63
2018-01-26T11:37:04.766Z,14.77
2018-01-26T11:39:33.133Z,25.80
2018-01-26T11:42:01.496Z,14.63
2018-01-26T11:44:30.607Z,23.43
2018-01-26T11:46:58.985Z,19.57
2018-01-26T11:49:27.346Z,17.10
2018-01-26T11:51:56.477Z,19.63
2018-01-26T11:54:24.850Z,20.97
2018-01-26T11:56:53.215Z,17.67
2018-01-26T11:59:21.581Z,18.23
2018-01-26T12:01:49.950Z,16.40
2018-01-26T12:04:19.073Z,19.27
2018-01-26T12:06:47.481Z,20.63
2018-01-26T12:09:15.849Z,19.83
2018-01-26T12:11:44.203Z,24.07
2018-01-26T12:14:12.379Z,15.20
2018-01-26T12:16:40.766Z,19.90
2018-01-26T12:19:09.132Z,16.53
2018-01-26T12:21:37.497Z,18.57
2018-01-26T12:24:05.883Z,19.30
2018-01-26T12:26:35.201Z,24.80
2018-01-26T12:29:03.694Z,18.80
2018-01-26T12:31:32.074Z,20.07
2018-01-26T12:34:00.259Z,21.17
2018-01-26T12:36:28.627Z,21.13
2018-01-26T12:38:57.020Z,17.63
2018-01-26T12:41:25.373Z,21.47
2018-01-26T12:43:53.784Z,20.10
2018-01-26T12:46:22.222Z,18.80
2018-01-26T12:48:50.731Z,18.63
2018-01-26T12:51:19.115Z,20.77
2018-01-26T12:53:48.252Z,16.80
2018-01-26T12:56:16.605Z,20.47
2018-01-26T12:58:45.753Z,27.87
2018-01-26T13:01:14.117Z,20.10
2018-01-26T13:03:42.509Z,20.53
2018-01-26T13:06:11.085Z,19.13
2018-01-26T13:08:39.423Z,20.57
2018-01-26T13:11:08.592Z,22.87
2018-01-26T13:13:36.956Z,22.60
2018-01-26T13:16:05.330Z,19.57
2018-01-26T13:18:33.935Z,16.10
2018-01-26T13:21:02.542Z,21.90
2018-01-26T13:23:31.708Z,22.40
2018-01-26T13:26:00.911Z,22.30
2018-01-26T13:28:29.290Z,23.37
2018-01-26T13:30:57.773Z,24.17
2018-01-26T13:33:26.129Z,18.33
2018-01-26T13:35:54.515Z,18.67
2018-01-26T13:38:22.883Z,18.17
2018-01-26T13:40:51.386Z,20.43
2018-01-26T13:43:19.570Z,22.07
2018-01-26T13:45:48.020Z,23.67
2018-01-26T13:48:16.428Z,21.57
2018-01-26T13:50:44.774Z,24.70
2018-01-26T13:53:13.170Z,26.00
2018-01-26T13:55:41.756Z,21.90
2018-01-26T13:58:09.979Z,15.50
2018-01-26T14:00:38.689Z,22.73
2018-01-26T14:03:07.498Z,22.37
2018-01-26T14:05:36.034Z,21.43
2018-01-26T14:08:04.401Z,18.47
2018-01-26T14:10:32.821Z,24.87
2018-01-26T14:13:01.294Z,19.43
2018-01-26T14:15:29.651Z,21.37
2018-01-26T14:17:58.306Z,17.90
2018-01-26T14:20:27.510Z,18.03
2018-01-26T14:22:56.799Z,16.67
2018-01-26T14:25:26.007Z,18.10
2018-01-26T14:27:55.250Z,16.90
2018-01-26T14:30:23.784Z,20.53
2018-01-26T14:32:53.046Z,19.57
2018-01-26T14:35:21.447Z,21.20
2018-01-26T14:37:50.566Z,18.23
2018-01-26T14:40:19.733Z,19.63
2018-01-26T14:42:48.369Z,18.77
2018-01-26T14:45:16.782Z,16.70
2018-01-26T14:47:45.137Z,18.67
2018-01-26T14:50:13.503Z,19.60
2018-01-26T14:52:41.846Z,23.63
2018-01-26T14:55:10.983Z,22.93
2018-01-26T14:57:39.440Z,25.60
2018-01-26T15:00:08.225Z,19.87
2018-01-26T15:02:36.581Z,25.33
2018-01-26T15:05:05.377Z,17.67
2018-01-26T15:07:35.173Z,24.20
2018-01-26T15:10:03.689Z,21.57
2018-01-26T15:12:32.291Z,23.00
2018-01-26T15:15:00.332Z,26.30
2018-01-26T15:17:29.468Z,23.40
2018-01-26T15:19:57.883Z,18.17
2018-01-26T15:22:26.404Z,22.40
2018-01-26T15:24:54.795Z,14.00
2018-01-26T15:27:23.385Z,20.93
2018-01-26T15:29:51.761Z,18.00
2018-01-26T15:32:20.538Z,21.20
2018-01-26T15:34:48.922Z,20.00
2018-01-26T15:37:17.268Z,21.17
2018-01-26T15:39:46.422Z,28.57
2018-01-26T15:42:14.944Z,25.83
2018-01-26T15:44:44.092Z,23.10
2018-01-26T15:47:12.655Z,19.83
2018-01-26T15:49:41.029Z,16.90
2018-01-26T15:52:09.384Z,23.93
2018-01-26T15:54:38.521Z,21.87
2018-01-26T15:57:06.936Z,21.40
2018-01-26T15:59:36.660Z,18.07
2018-01-26T16:02:05.793Z,18.03
2018-01-26T16:04:34.284Z,19.40
2018-01-26T16:07:02.661Z,26.13
2018-01-26T16:09:30.994Z,19.20
2018-01-26T16:11:58.738Z,20.30
2018-01-26T16:14:27.110Z,20.50
2018-01-26T16:16:55.487Z,22.70
2018-01-26T16:19:23.991Z,20.20
2018-01-26T16:21:53.126Z,25.30
2018-01-26T16:24:21.520Z,20.50
2018-01-26T16:26:49.924Z,22.60
2018-01-26T16:29:18.397Z,17.30
2018-01-26T16:31:46.771Z,26.90
2018-01-26T16:34:15.191Z,21.60
2018-01-26T16:36:42.886Z,22.40
2018-01-26T16:39:11.257Z,20.83
2018-01-26T16:41:39.704Z,21.00
2018-01-26T16:44:08.217Z,22.80
2018-01-26T16:46:36.587Z,22.33
2018-01-26T16:49:05.044Z,22.47
2018-01-26T16:51:33.448Z,21.00
2018-01-26T16:54:01.824Z,24.80
2018-01-26T16:56:30.226Z,20.60
2018-01-26T16:58:58.746Z,19.30
2018-01-26T17:01:27.101Z,21.17
2018-01-26T17:03:55.610Z,21.10
2018-01-26T17:06:24.736Z,18.70
2018-01-26T17:08:53.116Z,22.83
2018-01-26T17:11:21.684Z,19.70
2018-01-26T17:13:50.061Z,24.50
2018-01-26T17:16:19.696Z,23.47
2018-01-26T17:18:48.108Z,22.37
2018-01-26T17:21:16.746Z,26.80
2018-01-26T17:23:45.100Z,21.20
2018-01-26T17:26:13.396Z,28.60
2018-01-26T17:28:41.778Z,22.90
2018-01-26T17:31:10.139Z,24.93
2018-01-26T17:33:39.262Z,18.20
2018-01-26T17:36:07.631Z,22.70
2018-01-26T17:38:36.010Z,21.83
2018-01-26T17:41:04.604Z,23.73
2018-01-26T17:43:33.563Z,25.10
2018-01-26T17:46:02.850Z,23.03
2018-01-26T17:48:31.981Z,20.57
2018-01-26T17:51:00.392Z,19.03
2018-01-26T17:53:28.891Z,26.23
2018-01-26T17:55:57.260Z,25.23
2018-01-26T17:58:25.413Z,23.50
2018-01-26T18:00:53.792Z,23.30
2018-01-26T18:03:21.489Z,22.10
2018-01-26T18:05:50.777Z,24.70
2018-01-26T18:08:19.078Z,27.90
2018-01-26T18:10:48.216Z,28.40
2018-01-26T18:13:16.439Z,24.77
2018-01-26T18:15:45.890Z,22.53
2018-01-26T18:18:14.352Z,23.43
2018-01-26T18:20:42.884Z,27.70
2018-01-26T18:23:11.265Z,23.83
2018-01-26T18:25:39.820Z,28.37
2018-01-26T18:28:08.223Z,26.90
2018-01-26T18:30:36.569Z,26.60
2018-01-26T18:33:05.088Z,24.53
2018-01-26T18:35:33.453Z,34.60
2018-01-26T18:38:01.707Z,27.63
2018-01-26T18:40:30.091Z,26.20
2018-01-26T18:42:58.481Z,35.97
2018-01-26T18:45:27.780Z,25.03
2018-01-26T18:47:56.189Z,34.33
2018-01-26T18:50:25.347Z,26.27
2018-01-26T18:52:53.735Z,26.43
2018-01-26T18:55:22.108Z,31.03
2018-01-26T18:57:50.515Z,30.43
2018-01-26T19:00:19.632Z,33.03
2018-01-26T19:02:47.998Z,30.13
2018-01-26T19:05:17.125Z,26.43
2018-01-26T19:07:45.458Z,27.83
2018-01-26T19:10:14.604Z,28.87
2018-01-26T19:12:43.153Z,29.53
2018-01-26T19:15:12.457Z,21.73
2018-01-26T19:17:40.823Z,25.20
2018-01-26T19:20:09.962Z,25.50
2018-01-26T19:22:38.347Z,26.97
2018-01-26T19:25:06.826Z,29.00
2018-01-26T19:27:35.271Z,35.87
2018-01-26T19:30:03.641Z,25.37
2018-01-26T19:32:32.782Z,32.03
2018-01-26T19:35:01.236Z,27.83
2018-01-26T19:37:29.889Z,32.17
2018-01-26T19:39:59.006Z,30.30
2018-01-26T19:42:27.419Z,33.73
2018-01-26T19:44:56.109Z,32.73
2018-01-26T19:47:24.449Z,29.23
2018-01-26T19:49:52.872Z,27.87
2018-01-26T19:52:22.224Z,26.00
2018-01-26T19:54:50.920Z,33.97
2018-01-26T19:57:19.271Z,30.43
2018-01-26T19:59:48.637Z,34.33
2018-01-26T20:02:17.083Z,28.60
2018-01-26T20:04:50.337Z,31.20
2018-01-26T20:07:38.757Z,32.70
2018-01-26T20:10:07.282Z,33.93
2018-01-26T20:12:41.820Z,37.67
2018-01-26T20:15:10.284Z,35.60
2018-01-26T20:17:39.084Z,29.20
2018-01-26T20:20:07.451Z,26.67
2018-01-26T20:22:35.339Z,29.33
2018-01-26T20:25:03.932Z,32.90
2018-01-26T20:27:32.533Z,35.77
2018-01-26T20:30:01.169Z,37.83
2018-01-26T20:32:30.417Z,37.77
2018-01-26T20:34:58.914Z,34.03
2018-01-26T20:37:27.304Z,36.17
2018-01-26T20:39:55.708Z,38.10
2018-01-26T20:42:24.106Z,31.10
2018-01-26T20:44:52.565Z,37.87
2018-01-26T20:47:21.445Z,39.33
2018-01-26T20:49:50.657Z,29.87
2018-01-26T20:52:19.470Z,31.87
2018-01-26T20:54:47.909Z,34.43
2018-01-26T20:57:17.451Z,37.17
2018-01-26T20:59:45.732Z,33.93
2018-01-26T21:02:14.307Z,28.80
2018-01-26T21:04:42.722Z,29.10
2018-01-26T21:07:11.399Z,32.47
2018-01-26T21:09:39.856Z,31.97
2018-01-26T21:12:08.333Z,31.87
2018-01-26T21:14:37.318Z,29.70
2018-01-26T21:17:05.735Z,34.20
2018-01-26T21:19:35.057Z,32.97
2018-01-26T21:22:03.483Z,35.43
2018-01-26T21:24:31.861Z,35.90
2018-01-26T21:27:00.278Z,31.40
2018-01-26T21:29:28.666Z,39.27
2018-01-26T21:31:57.041Z,33.47
2018-01-26T21:34:25.479Z,29.37
2018-01-26T21:36:54.025Z,45.43
2018-01-26T21:39:23.359Z,36.73
2018-01-26T21:41:51.116Z,29.90
2018-01-26T21:44:20.274Z,25.60
2018-01-26T21:46:48.784Z,30.70
2018-01-26T21:49:17.413Z,31.30
2018-01-26T21:51:46.009Z,32.57
2018-01-26T21:54:15.175Z,36.00
2018-01-26T21:56:43.858Z,28.27
2018-01-26T21:59:12.414Z,33.13
2018-01-26T22:01:40.964Z,28.07
2018-01-26T22:04:10.098Z,32.00
2018-01-26T22:06:44.171Z,33.80
2018-01-26T22:09:13.432Z,32.23
2018-01-26T22:11:41.859Z,34.73
2018-01-26T22:14:11.974Z,28.77
2018-01-26T22:16:41.210Z,33.53
2018-01-26T22:19:09.562Z,34.50
2018-01-26T22:21:37.964Z,30.10
2018-01-26T22:24:06.428Z,37.30
2018-01-26T22:26:35.158Z,38.70
2018-01-26T22:29:03.331Z,36.43
2018-01-26T22:31:31.693Z,29.50
2018-01-26T22:34:00.096Z,31.60
2018-01-26T22:36:28.546Z,36.10
2018-01-26T22:38:56.924Z,32.00
2018-01-26T22:41:25.468Z,34.53
2018-01-26T22:43:54.755Z,36.20
2018-01-26T22:46:23.892Z,31.47
2018-01-26T22:48:52.301Z,46.30
2018-01-26T22:51:20.701Z,36.73
2018-01-26T22:53:48.929Z,38.43
2018-01-26T22:56:17.474Z,38.80
2018-01-26T22:58:46.770Z,32.63
2018-01-26T23:01:15.357Z,29.13
2018-01-26T23:03:44.563Z,34.53
2018-01-26T23:06:13.771Z,30.83
2018-01-26T23:08:42.169Z,34.00
2018-01-26T23:11:10.591Z,28.90
2018-01-26T23:13:39.712Z,33.47
2018-01-26T23:16:08.081Z,29.97
2018-01-26T23:18:37.508Z,30.70
2018-01-26T23:21:06.121Z,34.90
2018-01-26T23:23:35.439Z,31.17
2018-01-26T23:26:03.803Z,32.53
2018-01-26T23:28:32.336Z,29.30
2018-01-26T23:31:01.097Z,26.03
2018-01-26T23:33:29.493Z,36.80
2018-01-26T23:35:58.628Z,33.80
2018-01-26T23:38:27.057Z,35.77
2018-01-26T23:40:56.245Z,31.17
2018-01-26T23:43:24.978Z,29.50
2018-01-26T23:45:53.435Z,30.53
2018-01-26T23:48:22.821Z,39.37
2018-01-26T23:50:51.252Z,29.47
2018-01-26T23:53:19.638Z,30.93
2018-01-26T23:55:48.038Z,38.63
2018-01-26T23:58:16.476Z,30.30
